sensor_id;sensor_type;location;lat;lon;timestamp;P1;durP1;ratioP1;P2;durP2;ratioP2
43803;SDS011;29430;52.924;-2.388;2023-11-19T00:01:11;30.10;;;2.20;;
43803;SDS011;29430;52.924;-2.388;2023-11-19T00:06:03;11.98;;;1.33;;
43803;SDS011;29430;52.924;-2.388;2023-11-19T00:10:55;17.00;;;1.35;;
43803;SDS011;29430;52.924;-2.388;2023-11-19T00:15:47;19.70;;;1.60;;
43803;SDS011;29430;52.924;-2.388;2023-11-19T00:20:39;20.42;;;1.30;;
43803;SDS011;29430;52.924;-2.388;2023-11-19T00:25:30;14.95;;;1.25;;
43803;SDS011;29430;52.924;-2.388;2023-11-19T00:30:22;17.88;;;1.45;;
43803;SDS011;29430;52.924;-2.388;2023-11-19T00:35:14;20.77;;;1.38;;
43803;SDS011;29430;52.924;-2.388;2023-11-19T00:40:07;18.48;;;2.15;;
43803;SDS011;29430;52.924;-2.388;2023-11-19T00:44:59;16.83;;;2.33;;
43803;SDS011;29430;52.924;-2.388;2023-11-19T00:49:53;18.95;;;1.65;;
43803;SDS011;29430;52.924;-2.388;2023-11-19T00:54:44;13.45;;;1.02;;
43803;SDS011;29430;52.924;-2.388;2023-11-19T00:59:36;18.40;;;2.10;;
43803;SDS011;29430;52.924;-2.388;2023-11-19T01:04:29;19.02;;;1.67;;
43803;SDS011;29430;52.924;-2.388;2023-11-19T01:09:21;18.77;;;1.40;;
43803;SDS011;29430;52.924;-2.388;2023-11-19T01:14:13;12.30;;;1.63;;
43803;SDS011;29430;52.924;-2.388;2023-11-19T01:19:04;13.75;;;1.17;;
43803;SDS011;29430;52.924;-2.388;2023-11-19T01:24:08;16.90;;;1.23;;
43803;SDS011;29430;52.924;-2.388;2023-11-19T01:29:01;15.77;;;1.63;;
43803;SDS011;29430;52.924;-2.388;2023-11-19T01:33:52;17.15;;;1.75;;
43803;SDS011;29430;52.924;-2.388;2023-11-19T01:38:44;19.63;;;1.60;;
43803;SDS011;29430;52.924;-2.388;2023-11-19T01:43:36;14.70;;;1.30;;
43803;SDS011;29430;52.924;-2.388;2023-11-19T01:48:29;13.75;;;1.30;;
43803;SDS011;29430;52.924;-2.388;2023-11-19T01:53:24;17.48;;;1.77;;
43803;SDS011;29430;52.924;-2.388;2023-11-19T01:58:16;13.55;;;1.20;;
43803;SDS011;29430;52.924;-2.388;2023-11-19T02:03:08;14.32;;;0.77;;
43803;SDS011;29430;52.924;-2.388;2023-11-19T02:08:01;13.32;;;1.60;;
43803;SDS011;29430;52.924;-2.388;2023-11-19T02:12:54;17.15;;;0.90;;
43803;SDS011;29430;52.924;-2.388;2023-11-19T02:17:56;15.77;;;1.50;;
43803;SDS011;29430;52.924;-2.388;2023-11-19T02:22:48;16.38;;;1.05;;
43803;SDS011;29430;52.924;-2.388;2023-11-19T02:32:33;15.80;;;0.90;;
43803;SDS011;29430;52.924;-2.388;2023-11-19T02:37:27;12.93;;;0.90;;
43803;SDS011;29430;52.924;-2.388;2023-11-19T02:42:19;20.35;;;1.75;;
43803;SDS011;29430;52.924;-2.388;2023-11-19T02:47:11;16.58;;;1.63;;
43803;SDS011;29430;52.924;-2.388;2023-11-19T02:52:03;14.32;;;1.50;;
43803;SDS011;29430;52.924;-2.388;2023-11-19T02:56:57;19.90;;;1.02;;
43803;SDS011;29430;52.924;-2.388;2023-11-19T03:01:51;17.83;;;1.05;;
43803;SDS011;29430;52.924;-2.388;2023-11-19T03:06:43;13.10;;;0.95;;
43803;SDS011;29430;52.924;-2.388;2023-11-19T03:11:35;16.63;;;0.90;;
43803;SDS011;29430;52.924;-2.388;2023-11-19T03:16:27;17.27;;;1.42;;
43803;SDS011;29430;52.924;-2.388;2023-11-19T03:21:19;15.88;;;1.08;;
43803;SDS011;29430;52.924;-2.388;2023-11-19T03:26:10;12.40;;;0.90;;
43803;SDS011;29430;52.924;-2.388;2023-11-19T03:31:05;13.63;;;1.10;;
43803;SDS011;29430;52.924;-2.388;2023-11-19T03:36:00;11.13;;;0.60;;
43803;SDS011;29430;52.924;-2.388;2023-11-19T03:40:52;8.60;;;0.95;;
43803;SDS011;29430;52.924;-2.388;2023-11-19T03:45:43;11.40;;;0.75;;
43803;SDS011;29430;52.924;-2.388;2023-11-19T03:50:35;14.45;;;1.33;;
43803;SDS011;29430;52.924;-2.388;2023-11-19T03:55:27;10.25;;;1.00;;
43803;SDS011;29430;52.924;-2.388;2023-11-19T04:00:19;18.25;;;1.48;;
43803;SDS011;29430;52.924;-2.388;2023-11-19T04:05:12;18.02;;;1.33;;
43803;SDS011;29430;52.924;-2.388;2023-11-19T04:10:04;15.40;;;1.63;;
43803;SDS011;29430;52.924;-2.388;2023-11-19T04:14:56;23.20;;;1.38;;
43803;SDS011;29430;52.924;-2.388;2023-11-19T04:19:51;17.55;;;1.20;;
43803;SDS011;29430;52.924;-2.388;2023-11-19T04:24:43;18.30;;;1.60;;
43803;SDS011;29430;52.924;-2.388;2023-11-19T04:29:37;22.05;;;1.50;;
43803;SDS011;29430;52.924;-2.388;2023-11-19T04:34:28;21.58;;;1.20;;
43803;SDS011;29430;52.924;-2.388;2023-11-19T04:39:20;24.92;;;1.63;;
43803;SDS011;29430;52.924;-2.388;2023-11-19T04:44:12;12.93;;;1.45;;
43803;SDS011;29430;52.924;-2.388;2023-11-19T04:49:04;18.73;;;1.35;;
43803;SDS011;29430;52.924;-2.388;2023-11-19T04:53:56;18.38;;;1.10;;
43803;SDS011;29430;52.924;-2.388;2023-11-19T04:58:47;12.85;;;1.38;;
43803;SDS011;29430;52.924;-2.388;2023-11-19T05:03:39;8.23;;;1.00;;
43803;SDS011;29430;52.924;-2.388;2023-11-19T05:08:31;8.63;;;0.57;;
43803;SDS011;29430;52.924;-2.388;2023-11-19T05:13:23;12.85;;;0.93;;
43803;SDS011;29430;52.924;-2.388;2023-11-19T05:18:15;9.23;;;0.60;;
43803;SDS011;29430;52.924;-2.388;2023-11-19T05:23:07;11.77;;;0.60;;
43803;SDS011;29430;52.924;-2.388;2023-11-19T05:28:11;15.70;;;0.70;;
43803;SDS011;29430;52.924;-2.388;2023-11-19T05:33:05;12.13;;;1.75;;
43803;SDS011;29430;52.924;-2.388;2023-11-19T05:37:57;13.68;;;0.88;;
43803;SDS011;29430;52.924;-2.388;2023-11-19T05:42:49;7.45;;;1.02;;
43803;SDS011;29430;52.924;-2.388;2023-11-19T05:47:41;11.50;;;0.80;;
43803;SDS011;29430;52.924;-2.388;2023-11-19T05:52:33;10.98;;;0.60;;
43803;SDS011;29430;52.924;-2.388;2023-11-19T05:57:25;16.98;;;1.35;;
43803;SDS011;29430;52.924;-2.388;2023-11-19T06:02:16;9.40;;;0.65;;
43803;SDS011;29430;52.924;-2.388;2023-11-19T06:07:08;11.57;;;0.90;;
43803;SDS011;29430;52.924;-2.388;2023-11-19T06:12:00;11.23;;;0.80;;
43803;SDS011;29430;52.924;-2.388;2023-11-19T06:16:53;7.72;;;0.70;;
43803;SDS011;29430;52.924;-2.388;2023-11-19T06:21:45;12.80;;;0.70;;
43803;SDS011;29430;52.924;-2.388;2023-11-19T06:26:37;11.20;;;1.15;;
43803;SDS011;29430;52.924;-2.388;2023-11-19T06:31:28;8.60;;;0.80;;
43803;SDS011;29430;52.924;-2.388;2023-11-19T06:36:20;16.27;;;0.75;;
43803;SDS011;29430;52.924;-2.388;2023-11-19T06:41:13;14.32;;;0.90;;
43803;SDS011;29430;52.924;-2.388;2023-11-19T06:46:04;16.15;;;1.95;;
43803;SDS011;29430;52.924;-2.388;2023-11-19T06:50:57;11.38;;;1.00;;
43803;SDS011;29430;52.924;-2.388;2023-11-19T06:55:49;18.83;;;1.25;;
43803;SDS011;29430;52.924;-2.388;2023-11-19T07:00:41;14.85;;;1.38;;
43803;SDS011;29430;52.924;-2.388;2023-11-19T07:05:33;14.00;;;2.03;;
43803;SDS011;29430;52.924;-2.388;2023-11-19T07:10:25;17.63;;;1.00;;
43803;SDS011;29430;52.924;-2.388;2023-11-19T07:15:17;11.35;;;0.88;;
43803;SDS011;29430;52.924;-2.388;2023-11-19T07:20:09;14.60;;;0.75;;
43803;SDS011;29430;52.924;-2.388;2023-11-19T07:25:04;10.70;;;1.02;;
43803;SDS011;29430;52.924;-2.388;2023-11-19T07:29:57;17.30;;;1.35;;
43803;SDS011;29430;52.924;-2.388;2023-11-19T07:34:49;17.02;;;1.15;;
43803;SDS011;29430;52.924;-2.388;2023-11-19T07:39:41;10.88;;;0.70;;
43803;SDS011;29430;52.924;-2.388;2023-11-19T07:44:33;15.68;;;1.00;;
43803;SDS011;29430;52.924;-2.388;2023-11-19T07:49:25;8.73;;;0.73;;
43803;SDS011;29430;52.924;-2.388;2023-11-19T07:54:16;15.75;;;1.35;;
43803;SDS011;29430;52.924;-2.388;2023-11-19T07:59:08;12.75;;;0.90;;
43803;SDS011;29430;52.924;-2.388;2023-11-19T08:04:00;14.38;;;0.75;;
43803;SDS011;29430;52.924;-2.388;2023-11-19T08:08:53;9.80;;;0.70;;
43803;SDS011;29430;52.924;-2.388;2023-11-19T08:13:45;8.57;;;1.00;;
43803;SDS011;29430;52.924;-2.388;2023-11-19T08:18:37;13.25;;;0.55;;
43803;SDS011;29430;52.924;-2.388;2023-11-19T08:23:32;7.07;;;0.40;;
43803;SDS011;29430;52.924;-2.388;2023-11-19T08:28:24;4.70;;;0.30;;
43803;SDS011;29430;52.924;-2.388;2023-11-19T08:33:15;4.60;;;0.30;;
43803;SDS011;29430;52.924;-2.388;2023-11-19T08:38:08;3.80;;;0.30;;
43803;SDS011;29430;52.924;-2.388;2023-11-19T08:43:00;3.83;;;0.40;;
43803;SDS011;29430;52.924;-2.388;2023-11-19T08:47:52;3.35;;;0.20;;
43803;SDS011;29430;52.924;-2.388;2023-11-19T08:52:43;5.50;;;0.30;;
43803;SDS011;29430;52.924;-2.388;2023-11-19T08:57:35;5.40;;;0.45;;
43803;SDS011;29430;52.924;-2.388;2023-11-19T09:02:27;8.43;;;0.55;;
43803;SDS011;29430;52.924;-2.388;2023-11-19T09:07:19;5.22;;;0.70;;
43803;SDS011;29430;52.924;-2.388;2023-11-19T09:12:11;4.50;;;0.40;;
43803;SDS011;29430;52.924;-2.388;2023-11-19T09:17:02;4.22;;;0.47;;
43803;SDS011;29430;52.924;-2.388;2023-11-19T09:21:54;7.07;;;0.40;;
43803;SDS011;29430;52.924;-2.388;2023-11-19T09:26:46;4.68;;;0.50;;
43803;SDS011;29430;52.924;-2.388;2023-11-19T09:31:38;5.25;;;0.40;;
43803;SDS011;29430;52.924;-2.388;2023-11-19T09:36:30;5.85;;;0.38;;
43803;SDS011;29430;52.924;-2.388;2023-11-19T09:41:21;3.67;;;0.40;;
43803;SDS011;29430;52.924;-2.388;2023-11-19T09:46:14;4.50;;;0.30;;
43803;SDS011;29430;52.924;-2.388;2023-11-19T09:51:08;6.20;;;0.32;;
43803;SDS011;29430;52.924;-2.388;2023-11-19T09:56:04;6.45;;;0.68;;
43803;SDS011;29430;52.924;-2.388;2023-11-19T10:00:57;4.00;;;0.17;;
43803;SDS011;29430;52.924;-2.388;2023-11-19T10:06:12;2.35;;;0.20;;
43803;SDS011;29430;52.924;-2.388;2023-11-19T10:11:08;2.45;;;0.20;;
43803;SDS011;29430;52.924;-2.388;2023-11-19T10:16:03;1.35;;;0.10;;
43803;SDS011;29430;52.924;-2.388;2023-11-19T10:21:04;3.08;;;0.30;;
43803;SDS011;29430;52.924;-2.388;2023-11-19T10:26:03;0.63;;;0.03;;
43803;SDS011;29430;52.924;-2.388;2023-11-19T10:30:58;1.70;;;0.10;;
43803;SDS011;29430;52.924;-2.388;2023-11-19T10:35:53;0.85;;;0.10;;
43803;SDS011;29430;52.924;-2.388;2023-11-19T10:40:49;1.48;;;0.00;;
43803;SDS011;29430;52.924;-2.388;2023-11-19T10:45:42;0.52;;;0.00;;
43803;SDS011;29430;52.924;-2.388;2023-11-19T10:50:34;0.05;;;0.00;;
43803;SDS011;29430;52.924;-2.388;2023-11-19T10:55:28;1.67;;;0.03;;
43803;SDS011;29430;52.924;-2.388;2023-11-19T11:00:23;0.30;;;0.00;;
43803;SDS011;29430;52.924;-2.388;2023-11-19T11:05:16;0.28;;;0.00;;
43803;SDS011;29430;52.924;-2.388;2023-11-19T11:10:10;0.80;;;0.13;;
43803;SDS011;29430;52.924;-2.388;2023-11-19T11:15:04;0.43;;;0.10;;
43803;SDS011;29430;52.924;-2.388;2023-11-19T11:19:57;0.90;;;0.20;;
43803;SDS011;29430;52.924;-2.388;2023-11-19T11:35:08;1.38;;;0.10;;
43803;SDS011;29430;52.924;-2.388;2023-11-19T11:40:04;2.10;;;0.10;;
43803;SDS011;29430;52.924;-2.388;2023-11-19T11:50:05;0.20;;;0.00;;
43803;SDS011;29430;52.924;-2.388;2023-11-19T11:55:06;0.95;;;0.10;;
43803;SDS011;29430;52.924;-2.388;2023-11-19T12:00:01;0.28;;;0.10;;
43803;SDS011;29430;52.924;-2.388;2023-11-19T12:04:56;1.02;;;0.10;;
43803;SDS011;29430;52.924;-2.388;2023-11-19T12:09:51;0.73;;;0.10;;
43803;SDS011;29430;52.924;-2.388;2023-11-19T12:19:51;0.65;;;0.10;;
43803;SDS011;29430;52.924;-2.388;2023-11-19T12:24:43;0.65;;;0.10;;
43803;SDS011;29430;52.924;-2.388;2023-11-19T12:29:41;1.20;;;0.05;;
43803;SDS011;29430;52.924;-2.388;2023-11-19T12:34:35;1.63;;;0.10;;
43803;SDS011;29430;52.924;-2.388;2023-11-19T12:39:29;0.60;;;0.00;;
43803;SDS011;29430;52.924;-2.388;2023-11-19T12:44:21;0.20;;;0.00;;
43803;SDS011;29430;52.924;-2.388;2023-11-19T12:49:13;1.17;;;0.08;;
43803;SDS011;29430;52.924;-2.388;2023-11-19T12:54:05;1.70;;;0.10;;
43803;SDS011;29430;52.924;-2.388;2023-11-19T12:58:57;3.75;;;0.10;;
43803;SDS011;29430;52.924;-2.388;2023-11-19T13:04:15;1.02;;;0.10;;
43803;SDS011;29430;52.924;-2.388;2023-11-19T13:09:09;4.47;;;0.10;;
43803;SDS011;29430;52.924;-2.388;2023-11-19T13:14:13;1.15;;;0.15;;
43803;SDS011;29430;52.924;-2.388;2023-11-19T13:19:05;1.52;;;0.20;;
43803;SDS011;29430;52.924;-2.388;2023-11-19T13:23:57;3.95;;;0.32;;
43803;SDS011;29430;52.924;-2.388;2023-11-19T13:28:48;6.60;;;0.40;;
43803;SDS011;29430;52.924;-2.388;2023-11-19T13:33:40;3.72;;;0.50;;
43803;SDS011;29430;52.924;-2.388;2023-11-19T13:38:36;4.13;;;0.40;;
43803;SDS011;29430;52.924;-2.388;2023-11-19T13:43:28;5.90;;;0.45;;
43803;SDS011;29430;52.924;-2.388;2023-11-19T13:48:19;4.78;;;0.50;;
43803;SDS011;29430;52.924;-2.388;2023-11-19T13:53:11;2.63;;;0.22;;
43803;SDS011;29430;52.924;-2.388;2023-11-19T13:58:03;3.35;;;0.30;;
43803;SDS011;29430;52.924;-2.388;2023-11-19T14:02:55;4.03;;;0.77;;
43803;SDS011;29430;52.924;-2.388;2023-11-19T14:07:47;4.25;;;0.47;;
43803;SDS011;29430;52.924;-2.388;2023-11-19T14:12:39;3.72;;;0.35;;
43803;SDS011;29430;52.924;-2.388;2023-11-19T14:17:32;5.20;;;0.30;;
43803;SDS011;29430;52.924;-2.388;2023-11-19T14:22:25;6.00;;;0.25;;
43803;SDS011;29430;52.924;-2.388;2023-11-19T14:27:17;10.20;;;1.05;;
43803;SDS011;29430;52.924;-2.388;2023-11-19T14:32:09;6.15;;;1.80;;
43803;SDS011;29430;52.924;-2.388;2023-11-19T14:37:01;7.97;;;2.15;;
43803;SDS011;29430;52.924;-2.388;2023-11-19T14:41:53;5.28;;;0.30;;
43803;SDS011;29430;52.924;-2.388;2023-11-19T14:46:49;2.85;;;0.30;;
43803;SDS011;29430;52.924;-2.388;2023-11-19T14:51:41;1.95;;;0.30;;
43803;SDS011;29430;52.924;-2.388;2023-11-19T14:56:32;3.20;;;0.20;;
43803;SDS011;29430;52.924;-2.388;2023-11-19T15:01:24;4.25;;;0.30;;
43803;SDS011;29430;52.924;-2.388;2023-11-19T15:06:16;1.88;;;0.45;;
43803;SDS011;29430;52.924;-2.388;2023-11-19T15:11:08;3.25;;;0.20;;
43803;SDS011;29430;52.924;-2.388;2023-11-19T15:16:00;2.95;;;0.20;;
43803;SDS011;29430;52.924;-2.388;2023-11-19T15:20:52;3.13;;;0.10;;
43803;SDS011;29430;52.924;-2.388;2023-11-19T15:25:44;3.35;;;0.40;;
43803;SDS011;29430;52.924;-2.388;2023-11-19T15:30:35;3.92;;;0.20;;
43803;SDS011;29430;52.924;-2.388;2023-11-19T15:35:27;5.05;;;0.30;;
43803;SDS011;29430;52.924;-2.388;2023-11-19T15:40:19;2.90;;;0.20;;
43803;SDS011;29430;52.924;-2.388;2023-11-19T15:45:11;2.30;;;0.32;;
43803;SDS011;29430;52.924;-2.388;2023-11-19T15:50:04;3.67;;;0.38;;
43803;SDS011;29430;52.924;-2.388;2023-11-19T15:54:56;5.97;;;0.68;;
43803;SDS011;29430;52.924;-2.388;2023-11-19T15:59:48;5.15;;;0.70;;
43803;SDS011;29430;52.924;-2.388;2023-11-19T16:04:40;4.07;;;0.82;;
43803;SDS011;29430;52.924;-2.388;2023-11-19T16:09:31;4.20;;;0.85;;
43803;SDS011;29430;52.924;-2.388;2023-11-19T16:14:24;6.63;;;0.70;;
43803;SDS011;29430;52.924;-2.388;2023-11-19T16:19:16;4.88;;;0.50;;
43803;SDS011;29430;52.924;-2.388;2023-11-19T16:24:08;4.47;;;0.40;;
43803;SDS011;29430;52.924;-2.388;2023-11-19T16:29:01;3.63;;;0.30;;
43803;SDS011;29430;52.924;-2.388;2023-11-19T16:33:52;2.80;;;0.30;;
43803;SDS011;29430;52.924;-2.388;2023-11-19T16:38:44;4.45;;;0.40;;
43803;SDS011;29430;52.924;-2.388;2023-11-19T16:43:38;2.15;;;0.20;;
43803;SDS011;29430;52.924;-2.388;2023-11-19T16:48:30;6.43;;;0.50;;
43803;SDS011;29430;52.924;-2.388;2023-11-19T16:53:22;4.85;;;0.77;;
43803;SDS011;29430;52.924;-2.388;2023-11-19T16:58:14;3.33;;;0.30;;
43803;SDS011;29430;52.924;-2.388;2023-11-19T17:03:05;7.45;;;0.30;;
43803;SDS011;29430;52.924;-2.388;2023-11-19T17:07:57;6.50;;;0.40;;
43803;SDS011;29430;52.924;-2.388;2023-11-19T17:12:49;3.58;;;0.40;;
43803;SDS011;29430;52.924;-2.388;2023-11-19T17:17:41;6.95;;;0.88;;
43803;SDS011;29430;52.924;-2.388;2023-11-19T17:22:34;3.72;;;0.30;;
43803;SDS011;29430;52.924;-2.388;2023-11-19T17:27:27;5.80;;;0.43;;
43803;SDS011;29430;52.924;-2.388;2023-11-19T17:32:19;7.65;;;0.50;;
43803;SDS011;29430;52.924;-2.388;2023-11-19T17:37:11;2.53;;;0.20;;
43803;SDS011;29430;52.924;-2.388;2023-11-19T17:42:03;6.65;;;0.40;;
43803;SDS011;29430;52.924;-2.388;2023-11-19T17:46:55;5.18;;;0.40;;
43803;SDS011;29430;52.924;-2.388;2023-11-19T17:51:46;7.40;;;0.60;;
43803;SDS011;29430;52.924;-2.388;2023-11-19T17:56:38;4.03;;;0.30;;
43803;SDS011;29430;52.924;-2.388;2023-11-19T18:01:30;3.72;;;0.32;;
43803;SDS011;29430;52.924;-2.388;2023-11-19T18:06:22;3.83;;;0.40;;
43803;SDS011;29430;52.924;-2.388;2023-11-19T18:11:15;3.50;;;0.38;;
43803;SDS011;29430;52.924;-2.388;2023-11-19T18:16:07;5.20;;;0.57;;
43803;SDS011;29430;52.924;-2.388;2023-11-19T18:20:59;4.53;;;0.43;;
43803;SDS011;29430;52.924;-2.388;2023-11-19T18:25:50;4.22;;;0.50;;
43803;SDS011;29430;52.924;-2.388;2023-11-19T18:30:43;6.40;;;0.50;;
43803;SDS011;29430;52.924;-2.388;2023-11-19T18:35:35;3.63;;;0.32;;
43803;SDS011;29430;52.924;-2.388;2023-11-19T18:40:28;4.68;;;0.80;;
43803;SDS011;29430;52.924;-2.388;2023-11-19T18:45:19;3.20;;;0.30;;
43803;SDS011;29430;52.924;-2.388;2023-11-19T18:50:13;2.75;;;0.35;;
43803;SDS011;29430;52.924;-2.388;2023-11-19T18:55:05;3.90;;;0.40;;
43803;SDS011;29430;52.924;-2.388;2023-11-19T19:00:00;2.80;;;0.28;;
43803;SDS011;29430;52.924;-2.388;2023-11-19T19:04:56;7.20;;;0.40;;
43803;SDS011;29430;52.924;-2.388;2023-11-19T19:09:49;5.15;;;0.30;;
43803;SDS011;29430;52.924;-2.388;2023-11-19T19:14:45;3.63;;;0.30;;
43803;SDS011;29430;52.924;-2.388;2023-11-19T19:19:36;4.03;;;0.50;;
43803;SDS011;29430;52.924;-2.388;2023-11-19T19:24:29;5.85;;;0.30;;
43803;SDS011;29430;52.924;-2.388;2023-11-19T19:29:21;2.00;;;0.25;;
43803;SDS011;29430;52.924;-2.388;2023-11-19T19:34:14;7.22;;;0.90;;
43803;SDS011;29430;52.924;-2.388;2023-11-19T19:39:06;8.30;;;0.80;;
43803;SDS011;29430;52.924;-2.388;2023-11-19T19:44:05;9.38;;;0.60;;
43803;SDS011;29430;52.924;-2.388;2023-11-19T19:48:57;5.57;;;0.60;;
43803;SDS011;29430;52.924;-2.388;2023-11-19T19:53:48;7.53;;;0.73;;
43803;SDS011;29430;52.924;-2.388;2023-11-19T19:58:40;4.53;;;0.63;;
43803;SDS011;29430;52.924;-2.388;2023-11-19T20:03:32;3.58;;;0.30;;
43803;SDS011;29430;52.924;-2.388;2023-11-19T20:08:24;3.30;;;0.38;;
43803;SDS011;29430;52.924;-2.388;2023-11-19T20:13:16;2.33;;;0.40;;
43803;SDS011;29430;52.924;-2.388;2023-11-19T20:18:09;4.38;;;0.40;;
43803;SDS011;29430;52.924;-2.388;2023-11-19T20:23:03;6.55;;;0.40;;
43803;SDS011;29430;52.924;-2.388;2023-11-19T20:27:55;4.22;;;0.30;;
43803;SDS011;29430;52.924;-2.388;2023-11-19T20:32:48;7.00;;;0.40;;
43803;SDS011;29430;52.924;-2.388;2023-11-19T20:37:39;5.38;;;0.30;;
43803;SDS011;29430;52.924;-2.388;2023-11-19T20:42:31;4.00;;;0.30;;
43803;SDS011;29430;52.924;-2.388;2023-11-19T20:47:26;2.83;;;0.20;;
43803;SDS011;29430;52.924;-2.388;2023-11-19T20:52:17;2.78;;;0.20;;
43803;SDS011;29430;52.924;-2.388;2023-11-19T20:57:09;6.65;;;0.40;;
43803;SDS011;29430;52.924;-2.388;2023-11-19T21:02:01;4.65;;;0.40;;
43803;SDS011;29430;52.924;-2.388;2023-11-19T21:06:53;8.63;;;0.45;;
43803;SDS011;29430;52.924;-2.388;2023-11-19T21:11:45;2.30;;;0.30;;
43803;SDS011;29430;52.924;-2.388;2023-11-19T21:16:37;4.53;;;0.30;;
43803;SDS011;29430;52.924;-2.388;2023-11-19T21:21:29;6.15;;;0.93;;
43803;SDS011;29430;52.924;-2.388;2023-11-19T21:26:21;6.72;;;1.15;;
43803;SDS011;29430;52.924;-2.388;2023-11-19T21:31:13;7.60;;;0.95;;
43803;SDS011;29430;52.924;-2.388;2023-11-19T21:36:08;4.30;;;0.50;;
43803;SDS011;29430;52.924;-2.388;2023-11-19T21:41:00;7.35;;;0.40;;
43803;SDS011;29430;52.924;-2.388;2023-11-19T21:45:53;4.47;;;0.40;;
43803;SDS011;29430;52.924;-2.388;2023-11-19T21:50:45;8.10;;;1.00;;
43803;SDS011;29430;52.924;-2.388;2023-11-19T21:55:38;2.72;;;0.30;;
43803;SDS011;29430;52.924;-2.388;2023-11-19T22:00:30;4.47;;;0.30;;
43803;SDS011;29430;52.924;-2.388;2023-11-19T22:05:22;4.93;;;0.52;;
43803;SDS011;29430;52.924;-2.388;2023-11-19T22:10:13;4.03;;;0.30;;
43803;SDS011;29430;52.924;-2.388;2023-11-19T22:15:06;6.97;;;0.40;;
43803;SDS011;29430;52.924;-2.388;2023-11-19T22:19:58;8.13;;;0.50;;
43803;SDS011;29430;52.924;-2.388;2023-11-19T22:24:50;9.68;;;0.50;;
43803;SDS011;29430;52.924;-2.388;2023-11-19T22:29:43;8.68;;;0.60;;
43803;SDS011;29430;52.924;-2.388;2023-11-19T22:34:37;6.47;;;0.60;;
43803;SDS011;29430;52.924;-2.388;2023-11-19T22:39:29;5.55;;;0.40;;
43803;SDS011;29430;52.924;-2.388;2023-11-19T22:44:21;7.20;;;0.90;;
43803;SDS011;29430;52.924;-2.388;2023-11-19T22:49:14;8.43;;;0.60;;
43803;SDS011;29430;52.924;-2.388;2023-11-19T22:54:06;9.98;;;0.68;;
43803;SDS011;29430;52.924;-2.388;2023-11-19T22:59:00;12.13;;;0.50;;
43803;SDS011;29430;52.924;-2.388;2023-11-19T23:03:51;7.85;;;0.50;;
43803;SDS011;29430;52.924;-2.388;2023-11-19T23:08:44;7.18;;;0.50;;
43803;SDS011;29430;52.924;-2.388;2023-11-19T23:13:36;6.97;;;0.50;;
43803;SDS011;29430;52.924;-2.388;2023-11-19T23:18:29;12.40;;;0.50;;
43803;SDS011;29430;52.924;-2.388;2023-11-19T23:23:21;7.70;;;0.50;;
43803;SDS011;29430;52.924;-2.388;2023-11-19T23:28:13;10.85;;;0.70;;
43803;SDS011;29430;52.924;-2.388;2023-11-19T23:33:05;8.20;;;0.57;;
43803;SDS011;29430;52.924;-2.388;2023-11-19T23:37:57;8.80;;;0.50;;
43803;SDS011;29430;52.924;-2.388;2023-11-19T23:42:49;6.20;;;0.68;;
43803;SDS011;29430;52.924;-2.388;2023-11-19T23:47:40;7.35;;;1.00;;
43803;SDS011;29430;52.924;-2.388;2023-11-19T23:52:32;7.97;;;0.70;;
43803;SDS011;29430;52.924;-2.388;2023-11-19T23:57:24;5.55;;;0.40;;
